sensor_id;sensor_type;location;lat;lon;timestamp;temperature;humidity
71173;DHT22;58875;51.996;4.504;2022-09-17T00:01:19;12.47;80.32
71173;DHT22;58875;51.996;4.504;2022-09-17T00:03:50;12.46;80.85
71173;DHT22;58875;51.996;4.504;2022-09-17T00:06:16;12.53;81.47
71173;DHT22;58875;51.996;4.504;2022-09-17T00:08:42;12.50;81.77
71173;DHT22;58875;51.996;4.504;2022-09-17T00:11:25;12.54;81.79
71173;DHT22;58875;51.996;4.504;2022-09-17T00:13:53;12.61;81.95
71173;DHT22;58875;51.996;4.504;2022-09-17T00:16:28;12.65;81.88
71173;DHT22;58875;51.996;4.504;2022-09-17T00:18:55;12.64;81.53
71173;DHT22;58875;51.996;4.504;2022-09-17T00:21:21;12.63;81.01
71173;DHT22;58875;51.996;4.504;2022-09-17T00:23:47;12.56;81.16
71173;DHT22;58875;51.996;4.504;2022-09-17T00:26:13;12.50;80.38
71173;DHT22;58875;51.996;4.504;2022-09-17T00:28:38;12.50;80.24
71173;DHT22;58875;51.996;4.504;2022-09-17T00:31:09;12.40;78.84
71173;DHT22;58875;51.996;4.504;2022-09-17T00:33:34;12.39;79.59
71173;DHT22;58875;51.996;4.504;2022-09-17T00:36:04;12.37;79.23
71173;DHT22;58875;51.996;4.504;2022-09-17T00:38:30;12.27;79.25
71173;DHT22;58875;51.996;4.504;2022-09-17T00:40:59;12.26;79.60
71173;DHT22;58875;51.996;4.504;2022-09-17T00:45:59;12.29;79.86
71173;DHT22;58875;51.996;4.504;2022-09-17T00:48:26;12.34;80.62
71173;DHT22;58875;51.996;4.504;2022-09-17T00:50:54;12.40;80.25
71173;DHT22;58875;51.996;4.504;2022-09-17T00:53:21;12.50;80.60
71173;DHT22;58875;51.996;4.504;2022-09-17T00:58:20;12.57;80.84
71173;DHT22;58875;51.996;4.504;2022-09-17T01:00:47;12.57;80.82
71173;DHT22;58875;51.996;4.504;2022-09-17T01:03:13;12.57;80.86
71173;DHT22;58875;51.996;4.504;2022-09-17T01:17:14;12.70;80.35
71173;DHT22;58875;51.996;4.504;2022-09-17T01:33:29;12.68;81.44
71173;DHT22;58875;51.996;4.504;2022-09-17T01:36:18;12.65;81.39
71173;DHT22;58875;51.996;4.504;2022-09-17T01:41:43;12.51;81.15
71173;DHT22;58875;51.996;4.504;2022-09-17T01:44:19;12.43;80.96
71173;DHT22;58875;51.996;4.504;2022-09-17T01:47:06;12.37;80.45
71173;DHT22;58875;51.996;4.504;2022-09-17T01:49:37;12.46;80.48
71173;DHT22;58875;51.996;4.504;2022-09-17T01:52:08;12.46;80.50
71173;DHT22;58875;51.996;4.504;2022-09-17T01:54:56;12.48;80.02
71173;DHT22;58875;51.996;4.504;2022-09-17T01:57:31;12.57;78.64
71173;DHT22;58875;51.996;4.504;2022-09-17T02:00:09;12.67;78.60
71173;DHT22;58875;51.996;4.504;2022-09-17T02:02:53;12.73;78.51
71173;DHT22;58875;51.996;4.504;2022-09-17T02:06:00;12.71;78.52
71173;DHT22;58875;51.996;4.504;2022-09-17T02:08:53;12.71;78.19
71173;DHT22;58875;51.996;4.504;2022-09-17T02:11:21;12.71;76.48
71173;DHT22;58875;51.996;4.504;2022-09-17T02:13:59;12.87;76.14
71173;DHT22;58875;51.996;4.504;2022-09-17T02:16:31;12.88;75.73
71173;DHT22;58875;51.996;4.504;2022-09-17T02:24:33;12.99;74.72
71173;DHT22;58875;51.996;4.504;2022-09-17T02:27:06;13.02;74.27
71173;DHT22;58875;51.996;4.504;2022-09-17T02:29:38;13.07;74.83
71173;DHT22;58875;51.996;4.504;2022-09-17T02:32:07;13.12;74.25
71173;DHT22;58875;51.996;4.504;2022-09-17T02:34:33;13.16;75.25
71173;DHT22;58875;51.996;4.504;2022-09-17T02:36:59;13.05;74.94
71173;DHT22;58875;51.996;4.504;2022-09-17T02:39:26;13.05;75.47
71173;DHT22;58875;51.996;4.504;2022-09-17T02:59:30;12.51;71.92
71173;DHT22;58875;51.996;4.504;2022-09-17T03:02:04;12.56;73.35
71173;DHT22;58875;51.996;4.504;2022-09-17T03:04:33;12.53;72.52
71173;DHT22;58875;51.996;4.504;2022-09-17T03:07:05;12.57;72.54
71173;DHT22;58875;51.996;4.504;2022-09-17T03:09:34;12.58;72.86
71173;DHT22;58875;51.996;4.504;2022-09-17T03:12:00;12.58;72.93
71173;DHT22;58875;51.996;4.504;2022-09-17T03:14:26;12.60;73.49
71173;DHT22;58875;51.996;4.504;2022-09-17T03:16:52;12.54;71.48
71173;DHT22;58875;51.996;4.504;2022-09-17T03:19:17;12.60;71.98
71173;DHT22;58875;51.996;4.504;2022-09-17T03:21:43;12.61;71.37
71173;DHT22;58875;51.996;4.504;2022-09-17T03:24:12;12.65;72.74
71173;DHT22;58875;51.996;4.504;2022-09-17T03:26:37;12.68;71.78
71173;DHT22;58875;51.996;4.504;2022-09-17T03:29:12;12.71;72.40
71173;DHT22;58875;51.996;4.504;2022-09-17T03:31:38;12.67;71.97
71173;DHT22;58875;51.996;4.504;2022-09-17T03:34:04;12.63;72.38
71173;DHT22;58875;51.996;4.504;2022-09-17T03:36:30;12.63;70.78
71173;DHT22;58875;51.996;4.504;2022-09-17T03:38:56;12.71;70.36
71173;DHT22;58875;51.996;4.504;2022-09-17T03:41:23;12.74;70.38
71173;DHT22;58875;51.996;4.504;2022-09-17T03:43:50;12.81;71.28
71173;DHT22;58875;51.996;4.504;2022-09-17T03:46:16;12.80;70.20
71173;DHT22;58875;51.996;4.504;2022-09-17T03:48:41;12.88;71.57
71173;DHT22;58875;51.996;4.504;2022-09-17T03:51:07;12.89;71.84
71173;DHT22;58875;51.996;4.504;2022-09-17T03:53:33;12.87;71.67
71173;DHT22;58875;51.996;4.504;2022-09-17T03:56:01;12.88;71.39
71173;DHT22;58875;51.996;4.504;2022-09-17T03:58:29;12.87;71.92
71173;DHT22;58875;51.996;4.504;2022-09-17T04:00:55;12.91;71.93
71173;DHT22;58875;51.996;4.504;2022-09-17T04:03:23;12.85;71.90
71173;DHT22;58875;51.996;4.504;2022-09-17T04:05:49;12.89;72.67
71173;DHT22;58875;51.996;4.504;2022-09-17T04:08:14;12.85;73.29
71173;DHT22;58875;51.996;4.504;2022-09-17T04:10:40;12.83;73.34
71173;DHT22;58875;51.996;4.504;2022-09-17T04:13:05;12.80;72.81
71173;DHT22;58875;51.996;4.504;2022-09-17T04:15:31;12.78;73.56
71173;DHT22;58875;51.996;4.504;2022-09-17T04:17:57;12.78;73.39
71173;DHT22;58875;51.996;4.504;2022-09-17T04:20:23;12.74;72.76
71173;DHT22;58875;51.996;4.504;2022-09-17T04:22:49;12.77;72.15
71173;DHT22;58875;51.996;4.504;2022-09-17T04:25:14;12.77;70.84
71173;DHT22;58875;51.996;4.504;2022-09-17T04:27:43;12.83;70.66
71173;DHT22;58875;51.996;4.504;2022-09-17T04:30:09;12.87;69.85
71173;DHT22;58875;51.996;4.504;2022-09-17T04:32:35;12.88;69.61
71173;DHT22;58875;51.996;4.504;2022-09-17T04:35:00;12.91;69.68
71173;DHT22;58875;51.996;4.504;2022-09-17T04:37:26;12.89;69.64
71173;DHT22;58875;51.996;4.504;2022-09-17T04:39:51;12.94;68.04
71173;DHT22;58875;51.996;4.504;2022-09-17T04:42:17;12.99;68.93
71173;DHT22;58875;51.996;4.504;2022-09-17T04:44:43;12.99;70.48
71173;DHT22;58875;51.996;4.504;2022-09-17T04:47:08;12.94;72.36
71173;DHT22;58875;51.996;4.504;2022-09-17T04:49:34;12.81;73.70
71173;DHT22;58875;51.996;4.504;2022-09-17T04:51:59;12.74;74.04
71173;DHT22;58875;51.996;4.504;2022-09-17T04:54:25;12.76;74.53
71173;DHT22;58875;51.996;4.504;2022-09-17T04:56:51;12.64;74.24
71173;DHT22;58875;51.996;4.504;2022-09-17T04:59:16;12.67;74.61
71173;DHT22;58875;51.996;4.504;2022-09-17T05:01:42;12.61;73.05
71173;DHT22;58875;51.996;4.504;2022-09-17T05:04:08;12.53;73.18
71173;DHT22;58875;51.996;4.504;2022-09-17T05:06:34;12.51;73.13
71173;DHT22;58875;51.996;4.504;2022-09-17T05:09:05;12.46;71.78
71173;DHT22;58875;51.996;4.504;2022-09-17T05:11:30;12.44;72.14
71173;DHT22;58875;51.996;4.504;2022-09-17T05:13:56;12.46;72.20
71173;DHT22;58875;51.996;4.504;2022-09-17T05:16:22;12.47;72.09
71173;DHT22;58875;51.996;4.504;2022-09-17T05:18:47;12.48;72.37
71173;DHT22;58875;51.996;4.504;2022-09-17T05:21:15;12.56;73.47
71173;DHT22;58875;51.996;4.504;2022-09-17T05:23:43;12.60;74.20
71173;DHT22;58875;51.996;4.504;2022-09-17T05:26:09;12.57;74.89
71173;DHT22;58875;51.996;4.504;2022-09-17T05:28:34;12.63;74.85
71173;DHT22;58875;51.996;4.504;2022-09-17T05:31:01;12.64;75.26
71173;DHT22;58875;51.996;4.504;2022-09-17T05:33:27;12.63;75.61
71173;DHT22;58875;51.996;4.504;2022-09-17T05:35:53;12.56;76.35
71173;DHT22;58875;51.996;4.504;2022-09-17T05:38:19;12.56;76.52
71173;DHT22;58875;51.996;4.504;2022-09-17T05:40:44;12.57;77.10
71173;DHT22;58875;51.996;4.504;2022-09-17T05:43:11;12.50;77.31
71173;DHT22;58875;51.996;4.504;2022-09-17T05:45:37;12.50;77.69
71173;DHT22;58875;51.996;4.504;2022-09-17T05:48:05;12.57;77.58
71173;DHT22;58875;51.996;4.504;2022-09-17T05:50:31;12.64;77.45
71173;DHT22;58875;51.996;4.504;2022-09-17T05:55:55;12.53;77.88
71173;DHT22;58875;51.996;4.504;2022-09-17T05:58:21;12.50;77.45
71173;DHT22;58875;51.996;4.504;2022-09-17T06:00:46;12.50;77.98
71173;DHT22;58875;51.996;4.504;2022-09-17T06:03:14;12.57;78.44
71173;DHT22;58875;51.996;4.504;2022-09-17T06:05:41;12.64;78.38
71173;DHT22;58875;51.996;4.504;2022-09-17T06:08:07;12.74;79.15
71173;DHT22;58875;51.996;4.504;2022-09-17T06:10:37;12.80;79.30
71173;DHT22;58875;51.996;4.504;2022-09-17T06:13:03;12.85;79.39
71173;DHT22;58875;51.996;4.504;2022-09-17T06:15:29;12.81;79.21
71173;DHT22;58875;51.996;4.504;2022-09-17T06:17:55;12.87;78.39
71173;DHT22;58875;51.996;4.504;2022-09-17T06:20:21;12.78;77.99
71173;DHT22;58875;51.996;4.504;2022-09-17T06:22:46;12.85;79.12
71173;DHT22;58875;51.996;4.504;2022-09-17T06:25:12;12.73;77.22
71173;DHT22;58875;51.996;4.504;2022-09-17T06:27:38;12.70;77.47
71173;DHT22;58875;51.996;4.504;2022-09-17T06:30:04;12.68;78.39
71173;DHT22;58875;51.996;4.504;2022-09-17T06:32:31;12.67;78.28
71173;DHT22;58875;51.996;4.504;2022-09-17T06:34:57;12.67;78.58
71173;DHT22;58875;51.996;4.504;2022-09-17T06:37:31;12.71;79.26
71173;DHT22;58875;51.996;4.504;2022-09-17T06:39:57;12.80;78.59
71173;DHT22;58875;51.996;4.504;2022-09-17T06:42:26;12.77;79.11
71173;DHT22;58875;51.996;4.504;2022-09-17T06:44:52;12.70;77.92
71173;DHT22;58875;51.996;4.504;2022-09-17T06:47:18;12.70;78.43
71173;DHT22;58875;51.996;4.504;2022-09-17T06:49:44;12.81;77.59
71173;DHT22;58875;51.996;4.504;2022-09-17T06:52:10;12.81;78.84
71173;DHT22;58875;51.996;4.504;2022-09-17T06:54:36;12.76;78.47
71173;DHT22;58875;51.996;4.504;2022-09-17T06:57:02;12.73;78.09
71173;DHT22;58875;51.996;4.504;2022-09-17T06:59:27;12.78;77.73
71173;DHT22;58875;51.996;4.504;2022-09-17T07:01:53;12.89;78.03
71173;DHT22;58875;51.996;4.504;2022-09-17T07:04:19;13.04;78.15
71173;DHT22;58875;51.996;4.504;2022-09-17T07:06:44;13.32;78.34
71173;DHT22;58875;51.996;4.504;2022-09-17T07:09:11;13.40;77.39
71173;DHT22;58875;51.996;4.504;2022-09-17T07:11:40;13.28;75.79
71173;DHT22;58875;51.996;4.504;2022-09-17T07:14:05;13.09;76.90
71173;DHT22;58875;51.996;4.504;2022-09-17T07:16:31;12.83;77.68
71173;DHT22;58875;51.996;4.504;2022-09-17T07:19:02;12.67;78.55
71173;DHT22;58875;51.996;4.504;2022-09-17T07:21:28;12.61;78.81
71173;DHT22;58875;51.996;4.504;2022-09-17T07:23:54;12.57;79.11
71173;DHT22;58875;51.996;4.504;2022-09-17T07:26:19;12.67;79.93
71173;DHT22;58875;51.996;4.504;2022-09-17T07:28:45;12.94;80.06
71173;DHT22;58875;51.996;4.504;2022-09-17T07:31:11;13.11;79.84
71173;DHT22;58875;51.996;4.504;2022-09-17T07:33:38;13.38;78.64
71173;DHT22;58875;51.996;4.504;2022-09-17T07:36:07;13.59;79.17
71173;DHT22;58875;51.996;4.504;2022-09-17T07:38:33;13.71;76.80
71173;DHT22;58875;51.996;4.504;2022-09-17T07:41:02;13.99;77.23
71173;DHT22;58875;51.996;4.504;2022-09-17T07:43:33;14.21;76.55
71173;DHT22;58875;51.996;4.504;2022-09-17T07:46:00;14.24;72.38
71173;DHT22;58875;51.996;4.504;2022-09-17T07:48:29;14.13;73.46
71173;DHT22;58875;51.996;4.504;2022-09-17T07:50:55;13.97;72.47
71173;DHT22;58875;51.996;4.504;2022-09-17T07:53:21;13.77;72.18
71173;DHT22;58875;51.996;4.504;2022-09-17T07:55:55;13.60;71.98
71173;DHT22;58875;51.996;4.504;2022-09-17T07:58:23;13.56;73.45
71173;DHT22;58875;51.996;4.504;2022-09-17T08:00:52;13.58;71.98
71173;DHT22;58875;51.996;4.504;2022-09-17T08:03:17;13.60;72.06
71173;DHT22;58875;51.996;4.504;2022-09-17T08:05:45;13.56;71.92
71173;DHT22;58875;51.996;4.504;2022-09-17T08:08:12;13.66;72.54
71173;DHT22;58875;51.996;4.504;2022-09-17T08:10:38;14.13;73.75
71173;DHT22;58875;51.996;4.504;2022-09-17T08:13:03;14.22;70.89
71173;DHT22;58875;51.996;4.504;2022-09-17T08:15:28;14.54;71.60
71173;DHT22;58875;51.996;4.504;2022-09-17T08:17:54;15.00;71.27
71173;DHT22;58875;51.996;4.504;2022-09-17T08:20:20;15.23;67.13
71173;DHT22;58875;51.996;4.504;2022-09-17T08:22:45;15.84;67.12
71173;DHT22;58875;51.996;4.504;2022-09-17T08:25:11;16.12;65.19
71173;DHT22;58875;51.996;4.504;2022-09-17T08:27:39;15.44;70.31
71173;DHT22;58875;51.996;4.504;2022-09-17T08:30:06;14.69;71.91
71173;DHT22;58875;51.996;4.504;2022-09-17T08:32:33;14.07;73.83
71173;DHT22;58875;51.996;4.504;2022-09-17T08:34:58;13.58;74.64
71173;DHT22;58875;51.996;4.504;2022-09-17T08:37:24;13.34;76.38
71173;DHT22;58875;51.996;4.504;2022-09-17T08:39:50;13.42;77.38
71173;DHT22;58875;51.996;4.504;2022-09-17T08:42:32;13.90;78.73
71173;DHT22;58875;51.996;4.504;2022-09-17T08:45:03;14.20;78.02
71173;DHT22;58875;51.996;4.504;2022-09-17T08:47:41;14.48;79.14
71173;DHT22;58875;51.996;4.504;2022-09-17T08:50:28;14.71;77.74
71173;DHT22;58875;51.996;4.504;2022-09-17T08:56:12;15.14;76.31
71173;DHT22;58875;51.996;4.504;2022-09-17T09:01:45;15.34;73.93
71173;DHT22;58875;51.996;4.504;2022-09-17T09:07:07;15.11;69.56
71173;DHT22;58875;51.996;4.504;2022-09-17T09:09:42;15.40;69.62
71173;DHT22;58875;51.996;4.504;2022-09-17T09:12:21;15.50;70.09
71173;DHT22;58875;51.996;4.504;2022-09-17T09:14:58;15.46;69.25
71173;DHT22;58875;51.996;4.504;2022-09-17T09:17:44;15.34;71.28
71173;DHT22;58875;51.996;4.504;2022-09-17T09:20:18;15.19;71.45
71173;DHT22;58875;51.996;4.504;2022-09-17T09:22:51;14.99;71.08
71173;DHT22;58875;51.996;4.504;2022-09-17T09:25:20;15.27;72.08
71173;DHT22;58875;51.996;4.504;2022-09-17T09:28:14;15.68;71.74
71173;DHT22;58875;51.996;4.504;2022-09-17T09:30:49;15.98;69.29
71173;DHT22;58875;51.996;4.504;2022-09-17T09:33:28;15.14;68.82
71173;DHT22;58875;51.996;4.504;2022-09-17T09:35:54;14.42;71.76
71173;DHT22;58875;51.996;4.504;2022-09-17T09:38:32;14.32;74.60
71173;DHT22;58875;51.996;4.504;2022-09-17T09:41:08;14.38;75.46
71173;DHT22;58875;51.996;4.504;2022-09-17T09:44:03;14.48;74.06
71173;DHT22;58875;51.996;4.504;2022-09-17T09:55:27;15.16;71.68
71173;DHT22;58875;51.996;4.504;2022-09-17T10:00:53;14.98;73.05
71173;DHT22;58875;51.996;4.504;2022-09-17T10:03:27;15.29;73.90
71173;DHT22;58875;51.996;4.504;2022-09-17T10:06:08;15.64;75.29
71173;DHT22;58875;51.996;4.504;2022-09-17T10:08:39;15.77;71.83
71173;DHT22;58875;51.996;4.504;2022-09-17T10:13:38;16.34;67.96
71173;DHT22;58875;51.996;4.504;2022-09-17T10:16:23;16.42;67.94
71173;DHT22;58875;51.996;4.504;2022-09-17T10:19:17;16.12;66.12
71173;DHT22;58875;51.996;4.504;2022-09-17T10:21:42;15.95;68.69
71173;DHT22;58875;51.996;4.504;2022-09-17T10:24:29;15.57;68.19
71173;DHT22;58875;51.996;4.504;2022-09-17T10:27:02;15.18;70.50
71173;DHT22;58875;51.996;4.504;2022-09-17T10:29:29;14.92;70.04
71173;DHT22;58875;51.996;4.504;2022-09-17T10:31:56;14.82;69.82
71173;DHT22;58875;51.996;4.504;2022-09-17T10:34:26;14.54;69.11
71173;DHT22;58875;51.996;4.504;2022-09-17T10:36:54;14.49;69.27
71173;DHT22;58875;51.996;4.504;2022-09-17T10:41:54;14.88;68.91
71173;DHT22;58875;51.996;4.504;2022-09-17T10:44:22;15.46;70.42
71173;DHT22;58875;51.996;4.504;2022-09-17T10:46:50;15.97;70.16
71173;DHT22;58875;51.996;4.504;2022-09-17T11:00:22;15.47;68.27
71173;DHT22;58875;51.996;4.504;2022-09-17T11:08:10;16.12;66.90
71173;DHT22;58875;51.996;4.504;2022-09-17T11:11:08;16.38;66.72
71173;DHT22;58875;51.996;4.504;2022-09-17T11:19:04;17.06;57.39
71173;DHT22;58875;51.996;4.504;2022-09-17T11:25:02;16.79;57.86
71173;DHT22;58875;51.996;4.504;2022-09-17T11:27:51;16.77;55.61
71173;DHT22;58875;51.996;4.504;2022-09-17T11:30:20;16.84;55.95
71173;DHT22;58875;51.996;4.504;2022-09-17T11:35:26;16.55;62.42
71173;DHT22;58875;51.996;4.504;2022-09-17T11:41:20;16.99;61.06
71173;DHT22;58875;51.996;4.504;2022-09-17T11:48:51;15.11;68.52
71173;DHT22;58875;51.996;4.504;2022-09-17T11:51:44;14.92;71.35
71173;DHT22;58875;51.996;4.504;2022-09-17T11:55:10;14.61;74.11
71173;DHT22;58875;51.996;4.504;2022-09-17T11:57:38;14.57;75.56
71173;DHT22;58875;51.996;4.504;2022-09-17T12:05:58;15.58;74.65
71173;DHT22;58875;51.996;4.504;2022-09-17T12:08:43;15.40;72.66
71173;DHT22;58875;51.996;4.504;2022-09-17T12:14:21;15.04;69.70
71173;DHT22;58875;51.996;4.504;2022-09-17T12:16:56;15.57;68.92
71173;DHT22;58875;51.996;4.504;2022-09-17T12:19:42;15.91;64.10
71173;DHT22;58875;51.996;4.504;2022-09-17T12:22:14;16.09;63.55
71173;DHT22;58875;51.996;4.504;2022-09-17T12:24:42;16.26;60.16
71173;DHT22;58875;51.996;4.504;2022-09-17T12:27:35;16.43;59.94
71173;DHT22;58875;51.996;4.504;2022-09-17T12:47:03;17.00;51.10
71173;DHT22;58875;51.996;4.504;2022-09-17T12:55:29;17.34;49.40
71173;DHT22;58875;51.996;4.504;2022-09-17T12:58:19;17.31;52.39
71173;DHT22;58875;51.996;4.504;2022-09-17T13:01:05;17.53;51.23
71173;DHT22;58875;51.996;4.504;2022-09-17T13:03:44;17.55;51.17
71173;DHT22;58875;51.996;4.504;2022-09-17T13:12:00;17.96;52.65
71173;DHT22;58875;51.996;4.504;2022-09-17T13:17:34;17.82;50.26
71173;DHT22;58875;51.996;4.504;2022-09-17T13:20:13;17.90;53.07
71173;DHT22;58875;51.996;4.504;2022-09-17T13:22:47;18.04;51.81
71173;DHT22;58875;51.996;4.504;2022-09-17T13:25:16;17.92;51.22
71173;DHT22;58875;51.996;4.504;2022-09-17T13:27:44;17.63;51.77
71173;DHT22;58875;51.996;4.504;2022-09-17T13:30:13;17.61;52.11
71173;DHT22;58875;51.996;4.504;2022-09-17T13:37:33;17.76;52.76
71173;DHT22;58875;51.996;4.504;2022-09-17T13:40:02;17.81;50.04
71173;DHT22;58875;51.996;4.504;2022-09-17T13:43:04;18.00;50.50
71173;DHT22;58875;51.996;4.504;2022-09-17T13:45:33;17.69;51.45
71173;DHT22;58875;51.996;4.504;2022-09-17T13:48:22;17.45;53.19
71173;DHT22;58875;51.996;4.504;2022-09-17T13:50:49;17.46;54.12
71173;DHT22;58875;51.996;4.504;2022-09-17T13:53:21;17.97;53.16
71173;DHT22;58875;51.996;4.504;2022-09-17T13:55:56;18.13;52.89
71173;DHT22;58875;51.996;4.504;2022-09-17T13:58:29;17.75;53.66
71173;DHT22;58875;51.996;4.504;2022-09-17T14:13:51;17.71;53.91
71173;DHT22;58875;51.996;4.504;2022-09-17T14:16:31;18.02;51.76
71173;DHT22;58875;51.996;4.504;2022-09-17T14:19:02;17.90;50.27
71173;DHT22;58875;51.996;4.504;2022-09-17T14:21:31;17.86;52.40
71173;DHT22;58875;51.996;4.504;2022-09-17T14:24:00;17.61;51.01
71173;DHT22;58875;51.996;4.504;2022-09-17T14:29:26;17.65;49.87
71173;DHT22;58875;51.996;4.504;2022-09-17T14:31:57;17.61;48.78
71173;DHT22;58875;51.996;4.504;2022-09-17T14:34:25;17.71;49.52
71173;DHT22;58875;51.996;4.504;2022-09-17T14:36:53;17.71;46.29
71173;DHT22;58875;51.996;4.504;2022-09-17T14:39:28;17.71;45.11
71173;DHT22;58875;51.996;4.504;2022-09-17T14:41:54;17.58;45.41
71173;DHT22;58875;51.996;4.504;2022-09-17T14:44:25;17.61;45.69
71173;DHT22;58875;51.996;4.504;2022-09-17T14:47:11;17.59;44.85
71173;DHT22;58875;51.996;4.504;2022-09-17T14:49:38;17.61;46.78
71173;DHT22;58875;51.996;4.504;2022-09-17T14:57:39;17.58;48.62
71173;DHT22;58875;51.996;4.504;2022-09-17T15:00:05;17.61;48.41
71173;DHT22;58875;51.996;4.504;2022-09-17T15:04:58;17.32;49.93
71173;DHT22;58875;51.996;4.504;2022-09-17T15:07:25;17.11;51.19
71173;DHT22;58875;51.996;4.504;2022-09-17T15:09:51;16.83;53.06
71173;DHT22;58875;51.996;4.504;2022-09-17T15:12:26;16.59;53.91
71173;DHT22;58875;51.996;4.504;2022-09-17T15:14:54;16.36;54.73
71173;DHT22;58875;51.996;4.504;2022-09-17T15:17:21;16.26;56.38
71173;DHT22;58875;51.996;4.504;2022-09-17T15:19:54;16.25;56.84
71173;DHT22;58875;51.996;4.504;2022-09-17T15:22:24;16.16;56.86
71173;DHT22;58875;51.996;4.504;2022-09-17T15:24:55;16.08;57.90
71173;DHT22;58875;51.996;4.504;2022-09-17T15:30:15;15.65;61.97
71173;DHT22;58875;51.996;4.504;2022-09-17T15:32:55;15.65;63.43
71173;DHT22;58875;51.996;4.504;2022-09-17T15:35:32;15.91;64.09
71173;DHT22;58875;51.996;4.504;2022-09-17T15:38:00;15.88;63.61
71173;DHT22;58875;51.996;4.504;2022-09-17T15:40:32;15.88;64.04
71173;DHT22;58875;51.996;4.504;2022-09-17T15:43:19;15.62;65.04
71173;DHT22;58875;51.996;4.504;2022-09-17T15:45:46;15.36;67.52
71173;DHT22;58875;51.996;4.504;2022-09-17T15:50:57;14.88;66.11
71173;DHT22;58875;51.996;4.504;2022-09-17T15:53:23;14.57;66.72
71173;DHT22;58875;51.996;4.504;2022-09-17T15:56:29;14.62;69.14
71173;DHT22;58875;51.996;4.504;2022-09-17T15:59:02;14.57;68.95
71173;DHT22;58875;51.996;4.504;2022-09-17T16:08:55;13.83;75.89
71173;DHT22;58875;51.996;4.504;2022-09-17T16:11:23;13.65;77.61
71173;DHT22;58875;51.996;4.504;2022-09-17T16:13:50;13.74;78.30
71173;DHT22;58875;51.996;4.504;2022-09-17T16:16:22;13.79;77.17
71173;DHT22;58875;51.996;4.504;2022-09-17T16:18:49;13.77;77.53
71173;DHT22;58875;51.996;4.504;2022-09-17T16:21:17;13.77;76.08
71173;DHT22;58875;51.996;4.504;2022-09-17T16:23:43;13.76;76.80
71173;DHT22;58875;51.996;4.504;2022-09-17T16:26:20;13.58;75.34
71173;DHT22;58875;51.996;4.504;2022-09-17T16:28:51;13.65;76.20
71173;DHT22;58875;51.996;4.504;2022-09-17T16:31:18;13.69;75.81
71173;DHT22;58875;51.996;4.504;2022-09-17T16:33:45;13.74;75.84
71173;DHT22;58875;51.996;4.504;2022-09-17T16:36:11;13.80;75.80
71173;DHT22;58875;51.996;4.504;2022-09-17T16:38:36;13.87;76.15
71173;DHT22;58875;51.996;4.504;2022-09-17T16:41:07;14.08;76.42
71173;DHT22;58875;51.996;4.504;2022-09-17T16:43:33;14.17;76.38
71173;DHT22;58875;51.996;4.504;2022-09-17T16:46:06;14.30;76.20
71173;DHT22;58875;51.996;4.504;2022-09-17T16:48:32;14.27;76.63
71173;DHT22;58875;51.996;4.504;2022-09-17T16:50:58;13.94;78.12
71173;DHT22;58875;51.996;4.504;2022-09-17T16:53:26;13.76;78.34
71173;DHT22;58875;51.996;4.504;2022-09-17T16:55:52;13.52;78.26
71173;DHT22;58875;51.996;4.504;2022-09-17T16:58:17;13.43;79.90
71173;DHT22;58875;51.996;4.504;2022-09-17T17:00:44;13.43;79.71
71173;DHT22;58875;51.996;4.504;2022-09-17T17:03:13;13.48;80.93
71173;DHT22;58875;51.996;4.504;2022-09-17T17:05:40;13.48;81.71
71173;DHT22;58875;51.996;4.504;2022-09-17T17:08:06;13.38;80.71
71173;DHT22;58875;51.996;4.504;2022-09-17T17:10:34;13.40;81.48
71173;DHT22;58875;51.996;4.504;2022-09-17T17:13:00;13.26;82.25
71173;DHT22;58875;51.996;4.504;2022-09-17T17:15:26;13.23;83.30
71173;DHT22;58875;51.996;4.504;2022-09-17T17:17:52;13.28;83.12
71173;DHT22;58875;51.996;4.504;2022-09-17T17:20:17;13.20;82.94
71173;DHT22;58875;51.996;4.504;2022-09-17T17:22:43;13.16;82.89
71173;DHT22;58875;51.996;4.504;2022-09-17T17:25:12;13.22;82.76
71173;DHT22;58875;51.996;4.504;2022-09-17T17:27:38;13.19;82.78
71173;DHT22;58875;51.996;4.504;2022-09-17T17:30:06;13.26;82.64
71173;DHT22;58875;51.996;4.504;2022-09-17T17:32:33;13.28;82.39
71173;DHT22;58875;51.996;4.504;2022-09-17T17:34:59;13.38;82.41
71173;DHT22;58875;51.996;4.504;2022-09-17T17:37:24;13.34;82.64
71173;DHT22;58875;51.996;4.504;2022-09-17T17:39:51;13.30;82.50
71173;DHT22;58875;51.996;4.504;2022-09-17T17:42:18;13.32;82.37
71173;DHT22;58875;51.996;4.504;2022-09-17T17:44:43;13.39;82.34
71173;DHT22;58875;51.996;4.504;2022-09-17T17:47:09;13.38;82.16
71173;DHT22;58875;51.996;4.504;2022-09-17T17:49:34;13.36;82.51
71173;DHT22;58875;51.996;4.504;2022-09-17T17:52:00;13.38;82.35
71173;DHT22;58875;51.996;4.504;2022-09-17T17:54:26;13.35;82.03
71173;DHT22;58875;51.996;4.504;2022-09-17T17:56:54;13.35;82.04
71173;DHT22;58875;51.996;4.504;2022-09-17T17:59:21;13.38;82.31
71173;DHT22;58875;51.996;4.504;2022-09-17T18:01:46;13.38;81.72
71173;DHT22;58875;51.996;4.504;2022-09-17T18:04:12;13.42;82.26
71173;DHT22;58875;51.996;4.504;2022-09-17T18:06:38;13.46;82.62
71173;DHT22;58875;51.996;4.504;2022-09-17T18:09:04;13.48;81.88
71173;DHT22;58875;51.996;4.504;2022-09-17T18:11:33;13.43;82.01
71173;DHT22;58875;51.996;4.504;2022-09-17T18:13:59;13.48;81.36
71173;DHT22;58875;51.996;4.504;2022-09-17T18:16:27;13.45;81.28
71173;DHT22;58875;51.996;4.504;2022-09-17T18:18:55;13.42;79.87
71173;DHT22;58875;51.996;4.504;2022-09-17T18:21:22;13.43;80.76
71173;DHT22;58875;51.996;4.504;2022-09-17T18:23:49;13.53;80.69
71173;DHT22;58875;51.996;4.504;2022-09-17T18:26:20;13.59;80.12
71173;DHT22;58875;51.996;4.504;2022-09-17T18:28:46;13.49;79.32
71173;DHT22;58875;51.996;4.504;2022-09-17T18:31:22;13.55;79.61
71173;DHT22;58875;51.996;4.504;2022-09-17T18:33:54;13.55;80.11
71173;DHT22;58875;51.996;4.504;2022-09-17T18:36:20;13.59;79.76
71173;DHT22;58875;51.996;4.504;2022-09-17T18:38:45;13.62;79.15
71173;DHT22;58875;51.996;4.504;2022-09-17T18:41:11;13.60;79.17
71173;DHT22;58875;51.996;4.504;2022-09-17T18:43:38;13.32;79.46
71173;DHT22;58875;51.996;4.504;2022-09-17T18:46:04;13.14;80.45
71173;DHT22;58875;51.996;4.504;2022-09-17T18:48:30;13.09;80.94
71173;DHT22;58875;51.996;4.504;2022-09-17T18:51:02;13.14;81.19
71173;DHT22;58875;51.996;4.504;2022-09-17T18:53:32;13.05;81.12
71173;DHT22;58875;51.996;4.504;2022-09-17T18:56:15;13.01;81.36
71173;DHT22;58875;51.996;4.504;2022-09-17T18:58:43;13.07;81.38
71173;DHT22;58875;51.996;4.504;2022-09-17T19:01:09;13.09;81.65
71173;DHT22;58875;51.996;4.504;2022-09-17T19:03:35;13.14;81.64
71173;DHT22;58875;51.996;4.504;2022-09-17T19:06:03;13.14;81.65
71173;DHT22;58875;51.996;4.504;2022-09-17T19:08:29;13.15;81.53
71173;DHT22;58875;51.996;4.504;2022-09-17T19:10:55;13.08;81.65